sensor_id;sensor_type;location;lat;lon;timestamp;pressure;altitude;pressure_sealevel;temperature;humidity
55418;BME280;41287;47.554;7.844;2023-04-26T00:00:19;98046.31;;;16.96;62.04
55418;BME280;41287;47.554;7.844;2023-04-26T00:02:44;98052.53;;;16.96;61.90
55418;BME280;41287;47.554;7.844;2023-04-26T00:05:10;98047.91;;;16.97;62.03
55418;BME280;41287;47.554;7.844;2023-04-26T00:07:35;98049.81;;;16.96;62.04
55418;BME280;41287;47.554;7.844;2023-04-26T00:10:03;98047.09;;;16.96;62.09
55418;BME280;41287;47.554;7.844;2023-04-26T00:12:28;98053.63;;;16.95;62.06
55418;BME280;41287;47.554;7.844;2023-04-26T00:14:53;98057.94;;;16.96;62.08
55418;BME280;41287;47.554;7.844;2023-04-26T00:17:19;98055.22;;;16.96;62.01
55418;BME280;41287;47.554;7.844;2023-04-26T00:19:44;98055.22;;;16.96;61.97
55418;BME280;41287;47.554;7.844;2023-04-26T00:22:11;98057.94;;;16.96;61.97
55418;BME280;41287;47.554;7.844;2023-04-26T00:24:37;98055.22;;;16.96;62.03
55418;BME280;41287;47.554;7.844;2023-04-26T00:27:02;98056.03;;;16.97;62.12
55418;BME280;41287;47.554;7.844;2023-04-26T00:29:35;98060.63;;;16.96;62.11
55418;BME280;41287;47.554;7.844;2023-04-26T00:32:04;98055.22;;;16.96;62.09
55418;BME280;41287;47.554;7.844;2023-04-26T00:34:36;98054.44;;;16.96;61.97
55418;BME280;41287;47.554;7.844;2023-04-26T00:37:03;98055.22;;;16.96;62.12
55418;BME280;41287;47.554;7.844;2023-04-26T00:39:30;98055.22;;;16.96;62.04
55418;BME280;41287;47.554;7.844;2023-04-26T00:41:58;98045.50;;;16.95;62.02
55418;BME280;41287;47.554;7.844;2023-04-26T00:44:23;98043.59;;;16.96;61.98
55418;BME280;41287;47.554;7.844;2023-04-26T00:46:51;98049.81;;;16.96;62.04
55418;BME280;41287;47.554;7.844;2023-04-26T00:49:18;98038.19;;;16.96;62.12
55418;BME280;41287;47.554;7.844;2023-04-26T00:51:46;98045.19;;;16.97;62.13
55418;BME280;41287;47.554;7.844;2023-04-26T00:54:12;98041.69;;;16.96;61.99
55418;BME280;41287;47.554;7.844;2023-04-26T00:56:38;98039.31;;;16.95;62.02
55418;BME280;41287;47.554;7.844;2023-04-26T00:59:04;98044.41;;;16.96;62.12
55418;BME280;41287;47.554;7.844;2023-04-26T01:01:30;98040.91;;;16.96;62.16
55418;BME280;41287;47.554;7.844;2023-04-26T01:03:58;98034.69;;;16.95;62.11
55418;BME280;41287;47.554;7.844;2023-04-26T01:06:33;98037.41;;;16.95;61.95
55418;BME280;41287;47.554;7.844;2023-04-26T01:09:01;98045.50;;;16.95;62.05
55418;BME280;41287;47.554;7.844;2023-04-26T01:11:28;98038.19;;;16.96;61.90
55418;BME280;41287;47.554;7.844;2023-04-26T01:13:54;98030.06;;;16.96;61.94
55418;BME280;41287;47.554;7.844;2023-04-26T01:16:22;98032.78;;;16.96;62.06
55418;BME280;41287;47.554;7.844;2023-04-26T01:18:53;98042.00;;;16.95;62.05
55418;BME280;41287;47.554;7.844;2023-04-26T01:21:22;98040.09;;;16.95;62.13
55418;BME280;41287;47.554;7.844;2023-04-26T01:23:48;98040.91;;;16.96;61.96
55418;BME280;41287;47.554;7.844;2023-04-26T01:26:16;98040.91;;;16.96;62.09
55418;BME280;41287;47.554;7.844;2023-04-26T01:28:45;98034.69;;;16.95;62.01
55418;BME280;41287;47.554;7.844;2023-04-26T01:31:11;98038.19;;;16.96;62.05
55418;BME280;41287;47.554;7.844;2023-04-26T01:33:36;98040.91;;;16.96;61.80
55418;BME280;41287;47.554;7.844;2023-04-26T01:36:09;98038.19;;;16.96;62.03
55418;BME280;41287;47.554;7.844;2023-04-26T01:38:35;98037.41;;;16.95;61.97
55418;BME280;41287;47.554;7.844;2023-04-26T01:41:00;98031.97;;;16.95;61.96
55418;BME280;41287;47.554;7.844;2023-04-26T01:43:25;98038.19;;;16.96;62.14
55418;BME280;41287;47.554;7.844;2023-04-26T01:45:51;98036.28;;;16.96;62.01
55418;BME280;41287;47.554;7.844;2023-04-26T01:48:18;98027.38;;;16.96;62.01
55418;BME280;41287;47.554;7.844;2023-04-26T01:50:45;98025.78;;;16.95;62.11
55418;BME280;41287;47.554;7.844;2023-04-26T01:53:11;98031.19;;;16.95;62.05
55418;BME280;41287;47.554;7.844;2023-04-26T01:55:36;98025.78;;;16.95;61.96
55418;BME280;41287;47.554;7.844;2023-04-26T01:58:02;98024.66;;;16.96;62.03
55418;BME280;41287;47.554;7.844;2023-04-26T02:00:29;98023.06;;;16.95;62.27
55418;BME280;41287;47.554;7.844;2023-04-26T02:02:55;98021.94;;;16.96;62.17
55418;BME280;41287;47.554;7.844;2023-04-26T02:05:21;98021.94;;;16.96;62.03
55418;BME280;41287;47.554;7.844;2023-04-26T02:07:46;98021.94;;;16.96;62.10
55418;BME280;41287;47.554;7.844;2023-04-26T02:10:12;98027.38;;;16.96;62.12
55418;BME280;41287;47.554;7.844;2023-04-26T02:12:39;98019.25;;;16.96;62.18
55418;BME280;41287;47.554;7.844;2023-04-26T02:15:07;98026.56;;;16.95;62.14
55418;BME280;41287;47.554;7.844;2023-04-26T02:17:33;98021.16;;;16.95;62.25
55418;BME280;41287;47.554;7.844;2023-04-26T02:19:58;98025.78;;;16.95;62.32
55418;BME280;41287;47.554;7.844;2023-04-26T02:22:25;98018.44;;;16.95;62.28
55418;BME280;41287;47.554;7.844;2023-04-26T02:24:51;98022.28;;;16.94;62.20
55418;BME280;41287;47.554;7.844;2023-04-26T02:27:17;98023.06;;;16.95;62.08
55418;BME280;41287;47.554;7.844;2023-04-26T02:29:42;98023.06;;;16.95;62.10
55418;BME280;41287;47.554;7.844;2023-04-26T02:32:08;98031.97;;;16.95;62.16
55418;BME280;41287;47.554;7.844;2023-04-26T02:34:35;98029.28;;;16.95;62.13
55418;BME280;41287;47.554;7.844;2023-04-26T02:37:00;98037.41;;;16.95;62.21
55418;BME280;41287;47.554;7.844;2023-04-26T02:39:25;98031.19;;;16.95;62.06
55418;BME280;41287;47.554;7.844;2023-04-26T02:41:51;98038.50;;;16.94;62.07
55418;BME280;41287;47.554;7.844;2023-04-26T02:44:18;98031.97;;;16.95;62.19
55418;BME280;41287;47.554;7.844;2023-04-26T02:46:44;98030.38;;;16.94;62.20
55418;BME280;41287;47.554;7.844;2023-04-26T02:49:09;98020.34;;;16.95;62.05
55418;BME280;41287;47.554;7.844;2023-04-26T02:51:34;98024.97;;;16.94;62.15
55418;BME280;41287;47.554;7.844;2023-04-26T02:54:00;98021.47;;;16.94;62.24
55418;BME280;41287;47.554;7.844;2023-04-26T02:56:28;98027.38;;;16.96;62.09
55418;BME280;41287;47.554;7.844;2023-04-26T02:58:54;98024.19;;;16.94;62.28
55418;BME280;41287;47.554;7.844;2023-04-26T03:01:19;98018.75;;;16.94;62.22
55418;BME280;41287;47.554;7.844;2023-04-26T03:03:45;98024.19;;;16.94;62.12
55418;BME280;41287;47.554;7.844;2023-04-26T03:06:10;98021.47;;;16.94;62.11
55418;BME280;41287;47.554;7.844;2023-04-26T03:08:36;98021.47;;;16.94;62.12
55418;BME280;41287;47.554;7.844;2023-04-26T03:11:03;98021.16;;;16.95;62.02
55418;BME280;41287;47.554;7.844;2023-04-26T03:13:30;98016.06;;;16.94;62.15
55418;BME280;41287;47.554;7.844;2023-04-26T03:15:56;98011.44;;;16.94;62.01
55418;BME280;41287;47.554;7.844;2023-04-26T03:18:21;98016.84;;;16.94;61.99
55418;BME280;41287;47.554;7.844;2023-04-26T03:20:47;98006.81;;;16.95;62.00
55418;BME280;41287;47.554;7.844;2023-04-26T03:23:12;98005.22;;;16.94;62.03
55418;BME280;41287;47.554;7.844;2023-04-26T03:25:38;98005.22;;;16.94;62.11
55418;BME280;41287;47.554;7.844;2023-04-26T03:28:05;98007.94;;;16.94;61.99
55418;BME280;41287;47.554;7.844;2023-04-26T03:30:31;98007.16;;;16.93;62.01
55418;BME280;41287;47.554;7.844;2023-04-26T03:32:56;98016.06;;;16.94;62.19
55418;BME280;41287;47.554;7.844;2023-04-26T03:35:21;98007.94;;;16.94;62.12
55418;BME280;41287;47.554;7.844;2023-04-26T03:37:47;98007.94;;;16.94;62.15
55418;BME280;41287;47.554;7.844;2023-04-26T03:40:12;98007.94;;;16.94;62.06
55418;BME280;41287;47.554;7.844;2023-04-26T03:42:38;98009.84;;;16.93;62.20
55418;BME280;41287;47.554;7.844;2023-04-26T03:45:04;98005.22;;;16.94;62.19
55418;BME280;41287;47.554;7.844;2023-04-26T03:47:30;98006.34;;;16.93;62.03
55418;BME280;41287;47.554;7.844;2023-04-26T03:49:56;98001.72;;;16.93;62.22
55418;BME280;41287;47.554;7.844;2023-04-26T03:52:21;98001.72;;;16.93;62.09
55418;BME280;41287;47.554;7.844;2023-04-26T03:54:47;98002.53;;;16.94;62.03
55418;BME280;41287;47.554;7.844;2023-04-26T03:57:12;97997.91;;;16.94;61.93
55418;BME280;41287;47.554;7.844;2023-04-26T03:59:37;97997.13;;;16.94;62.04
55418;BME280;41287;47.554;7.844;2023-04-26T04:02:02;97999.03;;;16.93;62.05
55418;BME280;41287;47.554;7.844;2023-04-26T04:04:28;97997.13;;;16.94;62.20
55418;BME280;41287;47.554;7.844;2023-04-26T04:06:55;97990.91;;;16.93;62.61
55418;BME280;41287;47.554;7.844;2023-04-26T04:09:23;97994.09;;;16.95;62.88
55418;BME280;41287;47.554;7.844;2023-04-26T04:11:49;97994.09;;;16.95;63.03
55418;BME280;41287;47.554;7.844;2023-04-26T04:14:14;97984.38;;;16.94;62.95
55418;BME280;41287;47.554;7.844;2023-04-26T04:16:40;97983.59;;;16.94;63.25
55418;BME280;41287;47.554;7.844;2023-04-26T04:19:05;97989.78;;;16.94;63.27
55418;BME280;41287;47.554;7.844;2023-04-26T04:21:31;97983.59;;;16.94;63.46
55418;BME280;41287;47.554;7.844;2023-04-26T04:23:56;97989.00;;;16.94;63.54
55418;BME280;41287;47.554;7.844;2023-04-26T04:26:22;97992.50;;;16.94;63.53
55418;BME280;41287;47.554;7.844;2023-04-26T04:28:47;97997.13;;;16.94;63.17
55418;BME280;41287;47.554;7.844;2023-04-26T04:31:13;97993.97;;;16.92;63.54
55418;BME280;41287;47.554;7.844;2023-04-26T04:33:38;97997.13;;;16.94;63.60
55418;BME280;41287;47.554;7.844;2023-04-26T04:36:04;98001.28;;;16.91;63.52
55418;BME280;41287;47.554;7.844;2023-04-26T04:38:30;98001.72;;;16.93;63.55
55418;BME280;41287;47.554;7.844;2023-04-26T04:40:56;98002.84;;;16.92;63.53
55418;BME280;41287;47.554;7.844;2023-04-26T04:43:22;98007.16;;;16.93;63.52
55418;BME280;41287;47.554;7.844;2023-04-26T04:45:48;97997.44;;;16.92;63.51
55418;BME280;41287;47.554;7.844;2023-04-26T04:48:16;98006.03;;;16.94;63.31
55418;BME280;41287;47.554;7.844;2023-04-26T04:50:42;98007.94;;;16.94;63.43
55418;BME280;41287;47.554;7.844;2023-04-26T04:53:08;98005.22;;;16.94;63.46
55418;BME280;41287;47.554;7.844;2023-04-26T04:55:34;98017.16;;;16.93;63.46
55418;BME280;41287;47.554;7.844;2023-04-26T04:58:01;98017.66;;;16.95;63.49
55418;BME280;41287;47.554;7.844;2023-04-26T05:00:29;98021.94;;;16.96;63.70
55418;BME280;41287;47.554;7.844;2023-04-26T05:02:55;98023.06;;;16.95;63.48
55418;BME280;41287;47.554;7.844;2023-04-26T05:05:21;98025.78;;;16.95;63.66
55418;BME280;41287;47.554;7.844;2023-04-26T05:07:46;98020.34;;;16.95;63.40
55418;BME280;41287;47.554;7.844;2023-04-26T05:10:11;98023.38;;;16.93;63.43
55418;BME280;41287;47.554;7.844;2023-04-26T05:12:38;98022.59;;;16.93;63.45
55418;BME280;41287;47.554;7.844;2023-04-26T05:15:04;98026.88;;;16.94;63.34
55418;BME280;41287;47.554;7.844;2023-04-26T05:17:31;98032.28;;;16.94;63.27
55418;BME280;41287;47.554;7.844;2023-04-26T05:19:56;98023.38;;;16.93;63.24
55418;BME280;41287;47.554;7.844;2023-04-26T05:22:22;98035.00;;;16.94;63.17
55418;BME280;41287;47.554;7.844;2023-04-26T05:24:47;98039.63;;;16.93;63.31
55418;BME280;41287;47.554;7.844;2023-04-26T05:27:13;98046.63;;;16.94;63.15
55418;BME280;41287;47.554;7.844;2023-04-26T05:29:39;98048.53;;;16.94;63.11
55418;BME280;41287;47.554;7.844;2023-04-26T05:32:04;98045.03;;;16.93;63.00
55418;BME280;41287;47.554;7.844;2023-04-26T05:34:30;98049.66;;;16.93;62.86
55418;BME280;41287;47.554;7.844;2023-04-26T05:36:56;98055.84;;;16.93;62.89
55418;BME280;41287;47.554;7.844;2023-04-26T05:39:21;98053.16;;;16.93;62.86
55418;BME280;41287;47.554;7.844;2023-04-26T05:41:46;98054.25;;;16.92;62.70
55418;BME280;41287;47.554;7.844;2023-04-26T05:44:12;98050.78;;;16.92;62.75
55418;BME280;41287;47.554;7.844;2023-04-26T05:46:38;98056.66;;;16.94;62.70
55418;BME280;41287;47.554;7.844;2023-04-26T05:49:04;98055.84;;;16.93;62.68
55418;BME280;41287;47.554;7.844;2023-04-26T05:51:29;98054.25;;;16.92;62.69
55418;BME280;41287;47.554;7.844;2023-04-26T05:53:55;98050.78;;;16.92;62.74
55418;BME280;41287;47.554;7.844;2023-04-26T05:56:21;98065.88;;;16.93;62.62
55418;BME280;41287;47.554;7.844;2023-04-26T05:58:48;98065.09;;;16.92;62.56
55418;BME280;41287;47.554;7.844;2023-04-26T06:01:13;98066.22;;;16.91;62.47
55418;BME280;41287;47.554;7.844;2023-04-26T06:03:39;98068.16;;;16.91;62.46
55418;BME280;41287;47.554;7.844;2023-04-26T06:06:04;98071.66;;;16.91;62.46
55418;BME280;41287;47.554;7.844;2023-04-26T06:08:30;98065.44;;;16.91;62.31
55418;BME280;41287;47.554;7.844;2023-04-26T06:10:55;98073.56;;;16.91;62.35
55418;BME280;41287;47.554;7.844;2023-04-26T06:13:20;98066.22;;;16.91;62.24
55418;BME280;41287;47.554;7.844;2023-04-26T06:15:46;98069.75;;;16.92;62.52
55418;BME280;41287;47.554;7.844;2023-04-26T06:18:11;98070.84;;;16.91;62.29
55418;BME280;41287;47.554;7.844;2023-04-26T06:20:37;98073.56;;;16.91;62.37
55418;BME280;41287;47.554;7.844;2023-04-26T06:23:02;98072.75;;;16.90;62.50
55418;BME280;41287;47.554;7.844;2023-04-26T06:25:27;98084.38;;;16.91;62.53
55418;BME280;41287;47.554;7.844;2023-04-26T06:27:53;98068.94;;;16.91;62.53
55418;BME280;41287;47.554;7.844;2023-04-26T06:30:20;98080.09;;;16.90;62.48
55418;BME280;41287;47.554;7.844;2023-04-26T06:32:47;98077.38;;;16.90;62.59
55418;BME280;41287;47.554;7.844;2023-04-26T06:35:13;98076.25;;;16.91;62.26
55418;BME280;41287;47.554;7.844;2023-04-26T06:37:38;98072.75;;;16.90;62.63
55418;BME280;41287;47.554;7.844;2023-04-26T06:40:04;98077.38;;;16.90;62.59
55418;BME280;41287;47.554;7.844;2023-04-26T06:42:30;98071.16;;;16.89;62.57
55418;BME280;41287;47.554;7.844;2023-04-26T06:44:55;98072.75;;;16.90;62.60
55418;BME280;41287;47.554;7.844;2023-04-26T06:47:20;98071.16;;;16.89;62.47
55418;BME280;41287;47.554;7.844;2023-04-26T06:49:46;98070.06;;;16.90;62.54
55418;BME280;41287;47.554;7.844;2023-04-26T06:52:11;98068.47;;;16.89;62.34
55418;BME280;41287;47.554;7.844;2023-04-26T06:54:37;98065.75;;;16.89;62.38
55418;BME280;41287;47.554;7.844;2023-04-26T06:57:02;98065.75;;;16.89;62.47
55418;BME280;41287;47.554;7.844;2023-04-26T06:59:27;98065.75;;;16.89;62.49
55418;BME280;41287;47.554;7.844;2023-04-26T07:01:54;98065.75;;;16.89;62.42
55418;BME280;41287;47.554;7.844;2023-04-26T07:04:20;98063.84;;;16.90;62.49
55418;BME280;41287;47.554;7.844;2023-04-26T07:06:45;98063.06;;;16.89;62.57
55418;BME280;41287;47.554;7.844;2023-04-26T07:09:11;98065.75;;;16.89;62.71
55418;BME280;41287;47.554;7.844;2023-04-26T07:11:37;98066.56;;;16.90;62.56
55418;BME280;41287;47.554;7.844;2023-04-26T07:14:03;98054.94;;;16.89;62.50
55418;BME280;41287;47.554;7.844;2023-04-26T07:16:29;98046.00;;;16.89;62.62
55418;BME280;41287;47.554;7.844;2023-04-26T07:18:54;98047.91;;;16.88;62.47
55418;BME280;41287;47.554;7.844;2023-04-26T07:21:22;98050.63;;;16.88;62.56
55418;BME280;41287;47.554;7.844;2023-04-26T07:23:47;98056.03;;;16.88;62.57
55418;BME280;41287;47.554;7.844;2023-04-26T07:26:15;98051.44;;;16.89;62.49
55418;BME280;41287;47.554;7.844;2023-04-26T07:28:40;98046.81;;;16.89;62.65
55418;BME280;41287;47.554;7.844;2023-04-26T07:31:06;98050.63;;;16.88;62.54
55418;BME280;41287;47.554;7.844;2023-04-26T07:33:31;98046.00;;;16.89;62.65
55418;BME280;41287;47.554;7.844;2023-04-26T07:35:58;98050.63;;;16.88;62.59
55418;BME280;41287;47.554;7.844;2023-04-26T07:38:25;98048.72;;;16.89;62.55
55418;BME280;41287;47.554;7.844;2023-04-26T07:40:51;98046.00;;;16.89;62.44
55418;BME280;41287;47.554;7.844;2023-04-26T07:43:18;98049.84;;;16.88;62.62
55418;BME280;41287;47.554;7.844;2023-04-26T07:45:43;98046.00;;;16.89;62.64
55418;BME280;41287;47.554;7.844;2023-04-26T07:48:11;98044.41;;;16.88;62.52
55418;BME280;41287;47.554;7.844;2023-04-26T07:50:37;98048.72;;;16.89;62.56
55418;BME280;41287;47.554;7.844;2023-04-26T07:53:02;98047.91;;;16.88;62.55
55418;BME280;41287;47.554;7.844;2023-04-26T07:55:27;98040.59;;;16.89;62.75
55418;BME280;41287;47.554;7.844;2023-04-26T07:57:54;98039.00;;;16.88;62.59
55418;BME280;41287;47.554;7.844;2023-04-26T08:00:22;98039.81;;;16.88;62.56
55418;BME280;41287;47.554;7.844;2023-04-26T08:02:48;98037.09;;;16.88;62.75
55418;BME280;41287;47.554;7.844;2023-04-26T08:05:14;98036.31;;;16.88;62.58
55418;BME280;41287;47.554;7.844;2023-04-26T08:07:41;98035.50;;;16.87;62.59
55418;BME280;41287;47.554;7.844;2023-04-26T08:10:09;98042.50;;;16.88;62.67
55418;BME280;41287;47.554;7.844;2023-04-26T08:12:36;98033.59;;;16.88;62.55
55418;BME280;41287;47.554;7.844;2023-04-26T08:15:03;98029.78;;;16.89;62.52
55418;BME280;41287;47.554;7.844;2023-04-26T08:17:29;98030.09;;;16.87;62.68
55418;BME280;41287;47.554;7.844;2023-04-26T08:19:56;98033.59;;;16.88;62.59
55418;BME280;41287;47.554;7.844;2023-04-26T08:22:21;98026.28;;;16.88;62.85
55418;BME280;41287;47.554;7.844;2023-04-26T08:24:54;98023.88;;;16.87;62.57
55418;BME280;41287;47.554;7.844;2023-04-26T08:27:20;98028.19;;;16.88;62.73
55418;BME280;41287;47.554;7.844;2023-04-26T08:29:46;98031.19;;;16.86;62.60
55418;BME280;41287;47.554;7.844;2023-04-26T08:32:11;98028.19;;;16.88;62.60
55418;BME280;41287;47.554;7.844;2023-04-26T08:34:37;98029.28;;;16.87;62.67
55418;BME280;41287;47.554;7.844;2023-04-26T08:37:02;98029.28;;;16.87;62.63
55418;BME280;41287;47.554;7.844;2023-04-26T08:39:27;98024.69;;;16.87;62.57
55418;BME280;41287;47.554;7.844;2023-04-26T08:41:53;98036.31;;;16.88;62.76
55418;BME280;41287;47.554;7.844;2023-04-26T08:44:23;98028.50;;;16.86;62.60
55418;BME280;41287;47.554;7.844;2023-04-26T08:49:44;98024.22;;;16.85;62.49
55418;BME280;41287;47.554;7.844;2023-04-26T08:52:13;98023.09;;;16.86;62.68
55418;BME280;41287;47.554;7.844;2023-04-26T08:54:42;98029.28;;;16.87;62.54
55418;BME280;41287;47.554;7.844;2023-04-26T08:57:09;98021.19;;;16.87;62.83
55418;BME280;41287;47.554;7.844;2023-04-26T08:59:36;98025.78;;;16.86;62.61
55418;BME280;41287;47.554;7.844;2023-04-26T09:02:04;98023.88;;;16.87;62.73
55418;BME280;41287;47.554;7.844;2023-04-26T09:04:31;98022.28;;;16.86;62.55
55418;BME280;41287;47.554;7.844;2023-04-26T09:07:01;98024.22;;;16.85;62.65
55418;BME280;41287;47.554;7.844;2023-04-26T09:09:28;98030.41;;;16.86;62.57
55418;BME280;41287;47.554;7.844;2023-04-26T09:11:59;98026.59;;;16.87;62.50
55418;BME280;41287;47.554;7.844;2023-04-26T09:14:27;98016.88;;;16.86;62.75
55418;BME280;41287;47.554;7.844;2023-04-26T09:16:53;98014.16;;;16.86;62.73
55418;BME280;41287;47.554;7.844;2023-04-26T09:19:37;98020.72;;;16.85;62.66
55418;BME280;41287;47.554;7.844;2023-04-26T09:22:05;98018.81;;;16.85;62.70
55418;BME280;41287;47.554;7.844;2023-04-26T09:24:48;98019.13;;;16.84;62.68
55418;BME280;41287;47.554;7.844;2023-04-26T09:27:14;98009.91;;;16.85;62.62
55418;BME280;41287;47.554;7.844;2023-04-26T09:29:56;98002.91;;;16.84;62.77
55418;BME280;41287;47.554;7.844;2023-04-26T09:32:21;98011.47;;;16.86;62.65
55418;BME280;41287;47.554;7.844;2023-04-26T09:34:46;98011.47;;;16.86;62.57
55418;BME280;41287;47.554;7.844;2023-04-26T09:37:12;98006.84;;;16.86;62.49
55418;BME280;41287;47.554;7.844;2023-04-26T09:39:39;98008.75;;;16.86;62.51
55418;BME280;41287;47.554;7.844;2023-04-26T09:42:06;98006.06;;;16.86;62.68
55418;BME280;41287;47.554;7.844;2023-04-26T09:44:32;98010.69;;;16.85;62.53
55418;BME280;41287;47.554;7.844;2023-04-26T09:47:02;98007.66;;;16.87;62.35
55418;BME280;41287;47.554;7.844;2023-04-26T09:49:41;98006.06;;;16.86;62.31
55418;BME280;41287;47.554;7.844;2023-04-26T09:52:06;98008.75;;;16.86;62.49
55418;BME280;41287;47.554;7.844;2023-04-26T09:54:49;98010.22;;;16.83;62.41
55418;BME280;41287;47.554;7.844;2023-04-26T09:57:19;98008.75;;;16.86;62.35
55418;BME280;41287;47.554;7.844;2023-04-26T09:59:52;98005.59;;;16.84;62.47
55418;BME280;41287;47.554;7.844;2023-04-26T10:02:25;98007.19;;;16.85;62.40
55418;BME280;41287;47.554;7.844;2023-04-26T10:04:52;97999.06;;;16.85;62.54
55418;BME280;41287;47.554;7.844;2023-04-26T10:07:20;97990.97;;;16.85;62.37
55418;BME280;41287;47.554;7.844;2023-04-26T10:09:46;97995.22;;;16.86;62.49
55418;BME280;41287;47.554;7.844;2023-04-26T10:12:13;97985.53;;;16.85;62.44
55418;BME280;41287;47.554;7.844;2023-04-26T10:14:39;97992.06;;;16.84;62.49
55418;BME280;41287;47.554;7.844;2023-04-26T10:17:06;97990.16;;;16.84;62.55
55418;BME280;41287;47.554;7.844;2023-04-26T10:19:35;97990.16;;;16.84;62.53
55418;BME280;41287;47.554;7.844;2023-04-26T10:22:04;97988.25;;;16.85;62.38
55418;BME280;41287;47.554;7.844;2023-04-26T10:24:33;97990.97;;;16.85;62.61
55418;BME280;41287;47.554;7.844;2023-04-26T10:26:59;97990.97;;;16.85;62.57
55418;BME280;41287;47.554;7.844;2023-04-26T10:32:18;97974.72;;;16.85;62.60
55418;BME280;41287;47.554;7.844;2023-04-26T10:34:44;97978.53;;;16.84;62.53
55418;BME280;41287;47.554;7.844;2023-04-26T10:37:32;97968.50;;;16.84;62.66
55418;BME280;41287;47.554;7.844;2023-04-26T10:40:23;97969.16;;;16.81;62.72
55418;BME280;41287;47.554;7.844;2023-04-26T10:42:49;97973.94;;;16.84;62.42
55418;BME280;41287;47.554;7.844;2023-04-26T10:45:25;97964.53;;;16.82;62.41
55418;BME280;41287;47.554;7.844;2023-04-26T10:48:15;97969.47;;;16.80;62.28
55418;BME280;41287;47.554;7.844;2023-04-26T10:59:10;97966.31;;;16.78;61.40
55418;BME280;41287;47.554;7.844;2023-04-26T11:01:36;97971.38;;;16.79;61.46
55418;BME280;41287;47.554;7.844;2023-04-26T11:04:09;97964.41;;;16.78;61.23
55418;BME280;41287;47.554;7.844;2023-04-26T11:06:52;97958.50;;;16.76;61.66
55418;BME280;41287;47.554;7.844;2023-04-26T11:09:39;97956.91;;;16.75;61.23
55418;BME280;41287;47.554;7.844;2023-04-26T11:12:13;97956.91;;;16.75;61.42
55418;BME280;41287;47.554;7.844;2023-04-26T11:14:41;97956.59;;;16.77;61.32
55418;BME280;41287;47.554;7.844;2023-04-26T11:17:08;97949.28;;;16.77;61.21
55418;BME280;41287;47.554;7.844;2023-04-26T11:19:35;97956.59;;;16.77;61.29
55418;BME280;41287;47.554;7.844;2023-04-26T11:22:06;97946.09;;;16.75;61.22
55418;BME280;41287;47.554;7.844;2023-04-26T11:24:33;97941.47;;;16.76;61.11
55418;BME280;41287;47.554;7.844;2023-04-26T11:27:01;97946.09;;;16.75;61.08
55418;BME280;41287;47.554;7.844;2023-04-26T11:29:31;97945.28;;;16.75;61.29
55418;BME280;41287;47.554;7.844;2023-04-26T11:31:57;97944.19;;;16.76;61.03
55418;BME280;41287;47.554;7.844;2023-04-26T11:34:36;97939.41;;;16.73;61.01
55418;BME280;41287;47.554;7.844;2023-04-26T11:37:05;97944.50;;;16.74;61.16
55418;BME280;41287;47.554;7.844;2023-04-26T11:39:31;97938.78;;;16.76;61.05
55418;BME280;41287;47.554;7.844;2023-04-26T11:42:10;97934.00;;;16.73;61.00
55418;BME280;41287;47.554;7.844;2023-04-26T11:44:36;97940.22;;;16.73;60.94
55418;BME280;41287;47.554;7.844;2023-04-26T11:47:03;97938.28;;;16.74;60.97
55418;BME280;41287;47.554;7.844;2023-04-26T11:49:30;97935.59;;;16.74;61.00
55418;BME280;41287;47.554;7.844;2023-04-26T11:51:56;97935.59;;;16.74;61.09
55418;BME280;41287;47.554;7.844;2023-04-26T11:54:30;97940.56;;;16.72;60.90
55418;BME280;41287;47.554;7.844;2023-04-26T11:56:57;97935.59;;;16.74;61.05
55418;BME280;41287;47.554;7.844;2023-04-26T11:59:28;97931.63;;;16.71;60.96
55418;BME280;41287;47.554;7.844;2023-04-26T12:01:55;97941.00;;;16.74;61.11
55418;BME280;41287;47.554;7.844;2023-04-26T12:04:29;97931.63;;;16.71;61.05
55418;BME280;41287;47.554;7.844;2023-04-26T12:06:55;97929.72;;;16.72;61.01
55418;BME280;41287;47.554;7.844;2023-04-26T12:09:28;97933.56;;;16.71;60.89
55418;BME280;41287;47.554;7.844;2023-04-26T12:12:00;97928.94;;;16.71;60.83
55418;BME280;41287;47.554;7.844;2023-04-26T12:16:58;97931.28;;;16.73;60.80
55418;BME280;41287;47.554;7.844;2023-04-26T12:19:24;97928.59;;;16.73;60.91
55418;BME280;41287;47.554;7.844;2023-04-26T12:21:50;97930.19;;;16.74;60.72
55418;BME280;41287;47.554;7.844;2023-04-26T12:24:25;97925.88;;;16.73;60.59
55418;BME280;41287;47.554;7.844;2023-04-26T12:26:51;97915.84;;;16.73;60.59
55418;BME280;41287;47.554;7.844;2023-04-26T12:29:17;97930.97;;;16.74;60.57
55418;BME280;41287;47.554;7.844;2023-04-26T12:31:42;97924.78;;;16.74;60.84
55418;BME280;41287;47.554;7.844;2023-04-26T12:34:07;97932.88;;;16.74;60.73
55418;BME280;41287;47.554;7.844;2023-04-26T12:36:33;97924.78;;;16.74;60.80
55418;BME280;41287;47.554;7.844;2023-04-26T12:38:58;97922.84;;;16.74;61.00
55418;BME280;41287;47.554;7.844;2023-04-26T12:41:26;97916.66;;;16.74;60.85
55418;BME280;41287;47.554;7.844;2023-04-26T12:43:51;97923.97;;;16.73;60.93
55418;BME280;41287;47.554;7.844;2023-04-26T12:46:17;97925.56;;;16.74;60.84
55418;BME280;41287;47.554;7.844;2023-04-26T12:48:42;97925.09;;;16.72;61.06
55418;BME280;41287;47.554;7.844;2023-04-26T12:51:07;97920.94;;;16.75;60.98
55418;BME280;41287;47.554;7.844;2023-04-26T12:53:33;97920.94;;;16.75;60.98
55418;BME280;41287;47.554;7.844;2023-04-26T12:55:58;97926.34;;;16.75;61.04
55418;BME280;41287;47.554;7.844;2023-04-26T12:58:24;97917.44;;;16.74;61.26
55418;BME280;41287;47.554;7.844;2023-04-26T13:00:49;97910.13;;;16.75;61.11
55418;BME280;41287;47.554;7.844;2023-04-26T13:03:15;97910.13;;;16.75;61.27
55418;BME280;41287;47.554;7.844;2023-04-26T13:05:41;97916.34;;;16.75;61.31
55418;BME280;41287;47.554;7.844;2023-04-26T13:08:07;97912.03;;;16.74;61.29
55418;BME280;41287;47.554;7.844;2023-04-26T13:10:32;97907.41;;;16.75;61.09
55418;BME280;41287;47.554;7.844;2023-04-26T13:12:57;97904.72;;;16.75;61.22
55418;BME280;41287;47.554;7.844;2023-04-26T13:15:23;97903.13;;;16.74;61.33